Happy Valentine's Day! 

Flight Track Log - Related Links

Times and Time Zones

All times are in EDT time to prevent confusion due to time zone crossing. See the CHQ5045 flight status page for this flight to view local times or setup timezone preferences in your user account.


Time Position Orientation Groundspeed Altitude Reporting Facility
EDT Latitude Longitude Course Direction KTS MPH feet Rate Location/Type
Wed 07:46:00 PM 42.1946 -85.7710 259° West  Level FlightAware Approximate
Wed 07:46:08 PM 42.2264 -85.7358 273° West 228 262 8,900  Level Chicago Center
Wed 07:47:00 PM 42.1840 -85.8453 259° West  Level FlightAware Approximate
Wed 07:47:10 PM 42.2094 -85.8219 255° West 251 289 10,000  Level Chicago Center
Wed 07:48:00 PM 42.1697 -85.9184 255° West  Level FlightAware Approximate
Wed 07:48:12 PM 42.1803 -85.9600 254° West 308 354 10,000  Level Chicago Center
Wed 07:49:00 PM 42.1551 -85.9915 255° West  Level FlightAware Approximate
Wed 07:49:14 PM 42.1458 -86.0586 245° Southwest 327 376 10,000  Level Chicago Center
Wed 07:50:00 PM 42.1403 -86.0752 257° West  Level FlightAware Approximate
Wed 07:50:16 PM 42.0994 -86.1908 245° Southwest 328 377 10,000  Level Chicago Center
Wed 07:51:00 PM 42.1349 -86.1602 273° West  Level FlightAware Approximate
Wed 07:51:18 PM 42.0611 -86.3022 245° Southwest 329 379 10,000  Level Chicago Center
Wed 07:52:20 PM 42.0244 -86.4083 245° Southwest 321 369 10,000 -726 Level Chicago Center
Wed 07:53:22 PM 41.9975 -86.4919 247° West 257 296 8,500 -968 Descending Chicago Center
Wed 07:54:24 PM 41.9931 -86.5819 266° West 242 278 8,000 -242 Descending Chicago Center
Wed 07:55:26 PM 41.9939 -86.6947 271° West 254 292 8,000  Level Chicago Center
Wed 07:56:29 PM 41.9833 -86.7886 261° West 256 295 8,000  Level Chicago Center
Wed 07:57:31 PM 41.9756 -86.8819 264° West 254 292 8,000  Level Chicago Center
Wed 07:58:33 PM 41.9864 -86.9725 279° West 247 284 8,000  Level Chicago Center
Wed 07:59:35 PM 41.9808 -87.0842 266° West 252 290 8,000 -286 Level Chicago Center
Wed 08:01:00 PM 41.9833 -87.2097 272° West 243 280 7,300 -408 Descending Chicago Center
Wed 08:02:02 PM 41.9825 -87.2986 269° West 239 275 7,000 -145 Descending Chicago Center
Wed 08:03:04 PM 41.9833 -87.3894 271° West 243 280 7,000  Level Chicago Center
Wed 08:03:31 PM 41.9833 -87.4333 270° West 239 275 7,000 -516 Level Chicago TRACON
Wed 08:04:37 PM 41.9833 -87.5333 270° West 235 270 6,200 -1,048 Descending Chicago TRACON
Wed 08:05:37 PM 41.9833 -87.6167 270° West 234 269 4,800 -1,400 Descending Chicago TRACON

Login

Don't have an account? Register now (free) for customized features, flight alerts, and more!